sensor_id;sensor_type;location;lat;lon;timestamp;temperature;humidity
4820;DHT22;2424;49.696;6.630;2023-04-06T00:00:51;3.50;99.90
4820;DHT22;2424;49.696;6.630;2023-04-06T00:06:13;3.30;99.90
4820;DHT22;2424;49.696;6.630;2023-04-06T00:11:36;3.30;99.90
4820;DHT22;2424;49.696;6.630;2023-04-06T00:16:58;3.20;99.90
4820;DHT22;2424;49.696;6.630;2023-04-06T00:22:22;3.20;99.90
4820;DHT22;2424;49.696;6.630;2023-04-06T00:27:45;3.20;99.90
4820;DHT22;2424;49.696;6.630;2023-04-06T00:33:07;3.10;99.90
4820;DHT22;2424;49.696;6.630;2023-04-06T00:38:29;3.10;99.90
4820;DHT22;2424;49.696;6.630;2023-04-06T00:43:53;3.00;99.90
4820;DHT22;2424;49.696;6.630;2023-04-06T00:49:16;2.90;99.90
4820;DHT22;2424;49.696;6.630;2023-04-06T00:54:38;2.90;99.90
4820;DHT22;2424;49.696;6.630;2023-04-06T01:00:01;2.90;99.90
4820;DHT22;2424;49.696;6.630;2023-04-06T01:05:24;2.80;99.90
4820;DHT22;2424;49.696;6.630;2023-04-06T01:10:46;2.70;99.90
4820;DHT22;2424;49.696;6.630;2023-04-06T01:16:10;2.60;99.90
4820;DHT22;2424;49.696;6.630;2023-04-06T01:21:32;2.60;99.90
4820;DHT22;2424;49.696;6.630;2023-04-06T01:26:55;2.50;99.90
4820;DHT22;2424;49.696;6.630;2023-04-06T01:32:18;2.50;99.90
4820;DHT22;2424;49.696;6.630;2023-04-06T01:37:40;2.50;99.90
4820;DHT22;2424;49.696;6.630;2023-04-06T01:43:03;2.40;99.90
4820;DHT22;2424;49.696;6.630;2023-04-06T01:48:25;2.40;99.90
4820;DHT22;2424;49.696;6.630;2023-04-06T01:53:47;2.30;99.90
4820;DHT22;2424;49.696;6.630;2023-04-06T01:59:11;2.30;99.90
4820;DHT22;2424;49.696;6.630;2023-04-06T02:04:33;2.30;99.90
4820;DHT22;2424;49.696;6.630;2023-04-06T02:09:55;2.30;99.90
4820;DHT22;2424;49.696;6.630;2023-04-06T02:15:19;2.20;99.90
4820;DHT22;2424;49.696;6.630;2023-04-06T02:20:41;2.20;99.90
4820;DHT22;2424;49.696;6.630;2023-04-06T02:26:03;2.20;99.90
4820;DHT22;2424;49.696;6.630;2023-04-06T02:31:27;2.10;99.90
4820;DHT22;2424;49.696;6.630;2023-04-06T02:36:49;2.10;99.90
4820;DHT22;2424;49.696;6.630;2023-04-06T02:42:11;2.00;99.90
4820;DHT22;2424;49.696;6.630;2023-04-06T02:47:34;2.00;99.90
4820;DHT22;2424;49.696;6.630;2023-04-06T02:52:56;2.00;99.90
4820;DHT22;2424;49.696;6.630;2023-04-06T02:58:18;1.90;99.90
4820;DHT22;2424;49.696;6.630;2023-04-06T03:03:42;1.80;99.90
4820;DHT22;2424;49.696;6.630;2023-04-06T03:09:04;1.80;99.90
4820;DHT22;2424;49.696;6.630;2023-04-06T03:14:27;1.70;99.90
4820;DHT22;2424;49.696;6.630;2023-04-06T03:19:51;1.70;99.90
4820;DHT22;2424;49.696;6.630;2023-04-06T03:25:13;1.60;99.90
4820;DHT22;2424;49.696;6.630;2023-04-06T03:30:35;1.60;99.90
4820;DHT22;2424;49.696;6.630;2023-04-06T03:35:58;1.50;99.90
4820;DHT22;2424;49.696;6.630;2023-04-06T03:41:20;1.50;99.90
4820;DHT22;2424;49.696;6.630;2023-04-06T03:46:42;1.50;99.90
4820;DHT22;2424;49.696;6.630;2023-04-06T03:52:06;1.50;99.90
4820;DHT22;2424;49.696;6.630;2023-04-06T03:57:28;1.40;99.90
4820;DHT22;2424;49.696;6.630;2023-04-06T04:02:50;1.40;99.90
4820;DHT22;2424;49.696;6.630;2023-04-06T04:08:13;1.40;99.90
4820;DHT22;2424;49.696;6.630;2023-04-06T04:13:35;1.30;99.90
4820;DHT22;2424;49.696;6.630;2023-04-06T04:18:57;1.30;99.90
4820;DHT22;2424;49.696;6.630;2023-04-06T04:24:22;1.20;99.90
4820;DHT22;2424;49.696;6.630;2023-04-06T04:29:44;1.20;99.90
4820;DHT22;2424;49.696;6.630;2023-04-06T04:35:07;1.20;99.90
4820;DHT22;2424;49.696;6.630;2023-04-06T04:40:31;1.20;99.90
4820;DHT22;2424;49.696;6.630;2023-04-06T04:45:53;1.10;99.90
4820;DHT22;2424;49.696;6.630;2023-04-06T04:51:15;1.20;99.90
4820;DHT22;2424;49.696;6.630;2023-04-06T04:56:38;1.10;99.90
4820;DHT22;2424;49.696;6.630;2023-04-06T05:02:00;1.20;99.90
4820;DHT22;2424;49.696;6.630;2023-04-06T05:07:23;1.20;99.90
4820;DHT22;2424;49.696;6.630;2023-04-06T05:12:46;1.20;99.90
4820;DHT22;2424;49.696;6.630;2023-04-06T05:18:09;1.20;99.90
4820;DHT22;2424;49.696;6.630;2023-04-06T05:23:31;1.20;99.90
4820;DHT22;2424;49.696;6.630;2023-04-06T05:28:55;1.20;99.90
4820;DHT22;2424;49.696;6.630;2023-04-06T05:34:17;1.20;99.90
4820;DHT22;2424;49.696;6.630;2023-04-06T05:39:39;1.30;99.90
4820;DHT22;2424;49.696;6.630;2023-04-06T05:45:03;1.40;99.90
4820;DHT22;2424;49.696;6.630;2023-04-06T05:50:26;1.40;99.90
4820;DHT22;2424;49.696;6.630;2023-04-06T05:55:48;1.50;99.90
4820;DHT22;2424;49.696;6.630;2023-04-06T06:01:11;1.50;99.90
4820;DHT22;2424;49.696;6.630;2023-04-06T06:06:33;1.60;99.90
4820;DHT22;2424;49.696;6.630;2023-04-06T06:11:56;1.60;99.90
4820;DHT22;2424;49.696;6.630;2023-04-06T06:17:19;1.60;99.90
4820;DHT22;2424;49.696;6.630;2023-04-06T06:22:42;1.70;99.90
4820;DHT22;2424;49.696;6.630;2023-04-06T06:28:04;1.70;99.90
4820;DHT22;2424;49.696;6.630;2023-04-06T06:33:27;1.80;99.90
4820;DHT22;2424;49.696;6.630;2023-04-06T06:38:49;1.90;99.90
4820;DHT22;2424;49.696;6.630;2023-04-06T06:44:11;1.90;99.90
4820;DHT22;2424;49.696;6.630;2023-04-06T06:49:35;2.00;99.90
4820;DHT22;2424;49.696;6.630;2023-04-06T06:54:57;2.10;99.90
4820;DHT22;2424;49.696;6.630;2023-04-06T07:00:19;2.20;99.90
4820;DHT22;2424;49.696;6.630;2023-04-06T07:05:48;2.30;99.90
4820;DHT22;2424;49.696;6.630;2023-04-06T07:11:13;2.40;99.90
4820;DHT22;2424;49.696;6.630;2023-04-06T07:16:35;2.60;99.90
4820;DHT22;2424;49.696;6.630;2023-04-06T07:21:59;2.70;99.90
4820;DHT22;2424;49.696;6.630;2023-04-06T07:27:21;2.90;99.90
4820;DHT22;2424;49.696;6.630;2023-04-06T07:32:43;3.00;99.90
4820;DHT22;2424;49.696;6.630;2023-04-06T07:38:07;3.10;99.90
4820;DHT22;2424;49.696;6.630;2023-04-06T07:43:29;3.20;99.90
4820;DHT22;2424;49.696;6.630;2023-04-06T07:48:51;3.40;99.90
4820;DHT22;2424;49.696;6.630;2023-04-06T07:54:14;3.40;99.90
4820;DHT22;2424;49.696;6.630;2023-04-06T07:59:36;3.50;99.90
4820;DHT22;2424;49.696;6.630;2023-04-06T08:04:59;3.60;99.90
4820;DHT22;2424;49.696;6.630;2023-04-06T08:10:22;3.80;99.90
4820;DHT22;2424;49.696;6.630;2023-04-06T08:15:44;4.00;99.90
4820;DHT22;2424;49.696;6.630;2023-04-06T08:21:06;4.10;99.90
4820;DHT22;2424;49.696;6.630;2023-04-06T08:26:30;4.30;99.90
4820;DHT22;2424;49.696;6.630;2023-04-06T08:31:52;4.50;99.90
4820;DHT22;2424;49.696;6.630;2023-04-06T08:37:14;4.80;99.90
4820;DHT22;2424;49.696;6.630;2023-04-06T08:42:39;5.00;99.90
4820;DHT22;2424;49.696;6.630;2023-04-06T08:48:03;5.20;99.90
4820;DHT22;2424;49.696;6.630;2023-04-06T08:53:25;5.50;99.90
4820;DHT22;2424;49.696;6.630;2023-04-06T08:58:49;5.80;99.90
4820;DHT22;2424;49.696;6.630;2023-04-06T09:04:12;6.00;99.90
4820;DHT22;2424;49.696;6.630;2023-04-06T09:09:34;6.30;99.90
4820;DHT22;2424;49.696;6.630;2023-04-06T09:14:59;6.40;99.90
4820;DHT22;2424;49.696;6.630;2023-04-06T09:20:23;6.80;99.90
4820;DHT22;2424;49.696;6.630;2023-04-06T09:25:46;7.20;99.90
4820;DHT22;2424;49.696;6.630;2023-04-06T09:31:10;7.40;99.90
4820;DHT22;2424;49.696;6.630;2023-04-06T09:36:33;7.70;99.90
4820;DHT22;2424;49.696;6.630;2023-04-06T09:41:56;7.90;99.90
4820;DHT22;2424;49.696;6.630;2023-04-06T09:47:20;8.20;99.90
4820;DHT22;2424;49.696;6.630;2023-04-06T09:52:47;8.40;99.90
4820;DHT22;2424;49.696;6.630;2023-04-06T09:58:13;8.40;99.90
4820;DHT22;2424;49.696;6.630;2023-04-06T10:03:47;8.60;99.90
4820;DHT22;2424;49.696;6.630;2023-04-06T10:09:11;8.80;99.90
4820;DHT22;2424;49.696;6.630;2023-04-06T10:14:35;8.90;99.90
4820;DHT22;2424;49.696;6.630;2023-04-06T10:20:03;9.10;99.90
4820;DHT22;2424;49.696;6.630;2023-04-06T10:25:27;9.10;99.90
4820;DHT22;2424;49.696;6.630;2023-04-06T10:30:49;9.20;99.90
4820;DHT22;2424;49.696;6.630;2023-04-06T10:36:24;9.30;99.90
4820;DHT22;2424;49.696;6.630;2023-04-06T10:41:46;9.40;99.90
4820;DHT22;2424;49.696;6.630;2023-04-06T10:47:15;9.50;99.90
4820;DHT22;2424;49.696;6.630;2023-04-06T10:52:39;9.50;99.90
4820;DHT22;2424;49.696;6.630;2023-04-06T10:58:00;9.50;99.90
4820;DHT22;2424;49.696;6.630;2023-04-06T11:03:22;9.60;99.90
4820;DHT22;2424;49.696;6.630;2023-04-06T11:08:46;9.60;99.90
4820;DHT22;2424;49.696;6.630;2023-04-06T11:14:10;9.60;99.90
4820;DHT22;2424;49.696;6.630;2023-04-06T11:19:32;9.70;99.90
4820;DHT22;2424;49.696;6.630;2023-04-06T11:25:04;9.70;99.90
4820;DHT22;2424;49.696;6.630;2023-04-06T11:30:27;9.80;99.90
4820;DHT22;2424;49.696;6.630;2023-04-06T11:35:49;9.80;99.90
4820;DHT22;2424;49.696;6.630;2023-04-06T11:41:12;9.90;99.90
4820;DHT22;2424;49.696;6.630;2023-04-06T11:46:34;9.90;99.90
4820;DHT22;2424;49.696;6.630;2023-04-06T11:51:57;9.90;99.90
4820;DHT22;2424;49.696;6.630;2023-04-06T11:57:22;10.00;99.90
4820;DHT22;2424;49.696;6.630;2023-04-06T12:02:46;10.00;99.90
4820;DHT22;2424;49.696;6.630;2023-04-06T12:08:08;10.20;99.90
4820;DHT22;2424;49.696;6.630;2023-04-06T12:13:32;10.20;99.90
4820;DHT22;2424;49.696;6.630;2023-04-06T12:18:54;10.20;99.90
4820;DHT22;2424;49.696;6.630;2023-04-06T12:24:16;10.20;99.90
4820;DHT22;2424;49.696;6.630;2023-04-06T12:29:40;10.20;99.90
4820;DHT22;2424;49.696;6.630;2023-04-06T12:35:02;10.20;99.90
4820;DHT22;2424;49.696;6.630;2023-04-06T12:40:24;10.20;99.90
4820;DHT22;2424;49.696;6.630;2023-04-06T12:45:48;10.10;99.90
4820;DHT22;2424;49.696;6.630;2023-04-06T12:51:10;10.10;99.90
4820;DHT22;2424;49.696;6.630;2023-04-06T12:56:32;9.90;99.90
4820;DHT22;2424;49.696;6.630;2023-04-06T13:01:55;9.80;99.90
4820;DHT22;2424;49.696;6.630;2023-04-06T13:07:17;9.70;99.90
4820;DHT22;2424;49.696;6.630;2023-04-06T13:12:41;9.50;99.90
4820;DHT22;2424;49.696;6.630;2023-04-06T13:18:04;9.40;99.90
4820;DHT22;2424;49.696;6.630;2023-04-06T13:23:27;9.30;99.90
4820;DHT22;2424;49.696;6.630;2023-04-06T13:28:49;9.40;99.90
4820;DHT22;2424;49.696;6.630;2023-04-06T13:34:12;9.40;99.90
4820;DHT22;2424;49.696;6.630;2023-04-06T13:39:34;9.50;99.90
4820;DHT22;2424;49.696;6.630;2023-04-06T13:44:57;9.40;99.90
4820;DHT22;2424;49.696;6.630;2023-04-06T13:50:20;9.30;99.90
4820;DHT22;2424;49.696;6.630;2023-04-06T13:55:42;9.20;99.90
4820;DHT22;2424;49.696;6.630;2023-04-06T14:01:05;9.00;99.90
4820;DHT22;2424;49.696;6.630;2023-04-06T14:06:29;8.90;99.90
4820;DHT22;2424;49.696;6.630;2023-04-06T14:11:51;8.70;99.90
4820;DHT22;2424;49.696;6.630;2023-04-06T14:17:13;8.70;99.90
4820;DHT22;2424;49.696;6.630;2023-04-06T14:22:37;8.80;99.90
4820;DHT22;2424;49.696;6.630;2023-04-06T14:27:59;8.70;99.90
4820;DHT22;2424;49.696;6.630;2023-04-06T14:33:21;8.60;99.90
4820;DHT22;2424;49.696;6.630;2023-04-06T14:38:45;8.50;99.90
4820;DHT22;2424;49.696;6.630;2023-04-06T14:44:08;8.40;99.90
4820;DHT22;2424;49.696;6.630;2023-04-06T14:49:32;8.40;99.90
4820;DHT22;2424;49.696;6.630;2023-04-06T14:54:55;8.20;99.90
4820;DHT22;2424;49.696;6.630;2023-04-06T15:00:18;8.20;99.90
4820;DHT22;2424;49.696;6.630;2023-04-06T15:05:41;8.10;99.90
4820;DHT22;2424;49.696;6.630;2023-04-06T15:11:04;8.10;99.90
4820;DHT22;2424;49.696;6.630;2023-04-06T15:16:26;8.00;99.90
4820;DHT22;2424;49.696;6.630;2023-04-06T15:21:52;8.00;99.90
4820;DHT22;2424;49.696;6.630;2023-04-06T15:27:15;8.00;99.90
4820;DHT22;2424;49.696;6.630;2023-04-06T15:32:37;8.00;99.90
4820;DHT22;2424;49.696;6.630;2023-04-06T15:38:00;8.00;99.90
4820;DHT22;2424;49.696;6.630;2023-04-06T15:43:24;8.00;99.90
4820;DHT22;2424;49.696;6.630;2023-04-06T15:48:46;8.00;99.90
4820;DHT22;2424;49.696;6.630;2023-04-06T15:54:08;7.90;99.90
4820;DHT22;2424;49.696;6.630;2023-04-06T15:59:32;7.90;99.90
4820;DHT22;2424;49.696;6.630;2023-04-06T16:04:54;7.90;99.90
4820;DHT22;2424;49.696;6.630;2023-04-06T16:10:16;7.70;99.90
4820;DHT22;2424;49.696;6.630;2023-04-06T16:15:39;7.70;99.90
4820;DHT22;2424;49.696;6.630;2023-04-06T16:21:01;7.70;99.90
4820;DHT22;2424;49.696;6.630;2023-04-06T16:26:25;7.80;99.90
4820;DHT22;2424;49.696;6.630;2023-04-06T16:31:48;7.70;99.90
4820;DHT22;2424;49.696;6.630;2023-04-06T16:37:10;7.70;99.90
4820;DHT22;2424;49.696;6.630;2023-04-06T16:42:32;7.70;99.90
4820;DHT22;2424;49.696;6.630;2023-04-06T16:47:55;7.60;99.90
4820;DHT22;2424;49.696;6.630;2023-04-06T16:53:17;7.60;99.90
4820;DHT22;2424;49.696;6.630;2023-04-06T16:58:39;7.60;99.90
4820;DHT22;2424;49.696;6.630;2023-04-06T17:04:03;7.50;99.90
4820;DHT22;2424;49.696;6.630;2023-04-06T17:09:25;7.50;99.90
4820;DHT22;2424;49.696;6.630;2023-04-06T17:14:47;7.40;99.90
4820;DHT22;2424;49.696;6.630;2023-04-06T17:20:09;7.40;99.90
4820;DHT22;2424;49.696;6.630;2023-04-06T17:25:31;7.30;99.90
4820;DHT22;2424;49.696;6.630;2023-04-06T17:30:53;7.30;99.90
4820;DHT22;2424;49.696;6.630;2023-04-06T17:36:20;7.30;99.90
4820;DHT22;2424;49.696;6.630;2023-04-06T17:41:42;7.20;99.90
4820;DHT22;2424;49.696;6.630;2023-04-06T17:47:04;7.20;99.90
4820;DHT22;2424;49.696;6.630;2023-04-06T17:52:29;7.20;99.90
4820;DHT22;2424;49.696;6.630;2023-04-06T17:57:51;7.20;99.90
4820;DHT22;2424;49.696;6.630;2023-04-06T18:03:03;7.20;99.90
4820;DHT22;2424;49.696;6.630;2023-04-06T18:08:27;7.20;99.90
4820;DHT22;2424;49.696;6.630;2023-04-06T18:13:49;7.20;99.90
4820;DHT22;2424;49.696;6.630;2023-04-06T18:19:10;7.10;99.90
4820;DHT22;2424;49.696;6.630;2023-04-06T18:24:34;7.20;99.90
4820;DHT22;2424;49.696;6.630;2023-04-06T18:29:56;7.20;99.90
4820;DHT22;2424;49.696;6.630;2023-04-06T18:35:19;7.20;99.90
4820;DHT22;2424;49.696;6.630;2023-04-06T18:40:43;7.20;99.90
4820;DHT22;2424;49.696;6.630;2023-04-06T18:46:09;7.20;99.90
4820;DHT22;2424;49.696;6.630;2023-04-06T18:51:32;7.20;99.90
4820;DHT22;2424;49.696;6.630;2023-04-06T18:56:55;7.20;99.90
4820;DHT22;2424;49.696;6.630;2023-04-06T19:02:17;7.20;99.90
4820;DHT22;2424;49.696;6.630;2023-04-06T19:07:39;7.20;99.90
4820;DHT22;2424;49.696;6.630;2023-04-06T19:13:04;7.20;99.90
4820;DHT22;2424;49.696;6.630;2023-04-06T19:18:25;7.30;99.90
4820;DHT22;2424;49.696;6.630;2023-04-06T19:23:50;7.30;99.90
4820;DHT22;2424;49.696;6.630;2023-04-06T19:29:15;7.30;99.90
4820;DHT22;2424;49.696;6.630;2023-04-06T19:34:37;7.30;99.90
4820;DHT22;2424;49.696;6.630;2023-04-06T19:39:59;7.30;99.90
4820;DHT22;2424;49.696;6.630;2023-04-06T19:45:23;7.30;99.90
4820;DHT22;2424;49.696;6.630;2023-04-06T19:50:45;7.30;99.90
4820;DHT22;2424;49.696;6.630;2023-04-06T19:56:07;7.30;99.90
4820;DHT22;2424;49.696;6.630;2023-04-06T20:01:31;7.30;99.90
4820;DHT22;2424;49.696;6.630;2023-04-06T20:06:53;7.30;99.90
4820;DHT22;2424;49.696;6.630;2023-04-06T20:12:15;7.30;99.90
4820;DHT22;2424;49.696;6.630;2023-04-06T20:17:38;7.30;99.90
4820;DHT22;2424;49.696;6.630;2023-04-06T20:23:02;7.30;99.90
4820;DHT22;2424;49.696;6.630;2023-04-06T20:28:24;7.30;99.90
4820;DHT22;2424;49.696;6.630;2023-04-06T20:33:47;7.30;99.90
4820;DHT22;2424;49.696;6.630;2023-04-06T20:39:09;7.30;99.90
4820;DHT22;2424;49.696;6.630;2023-04-06T20:44:32;7.30;99.90
4820;DHT22;2424;49.696;6.630;2023-04-06T20:49:56;7.30;99.90
4820;DHT22;2424;49.696;6.630;2023-04-06T20:55:18;7.30;99.90
4820;DHT22;2424;49.696;6.630;2023-04-06T21:00:40;7.30;99.90
4820;DHT22;2424;49.696;6.630;2023-04-06T21:06:04;7.30;99.90
4820;DHT22;2424;49.696;6.630;2023-04-06T21:11:27;7.30;99.90
4820;DHT22;2424;49.696;6.630;2023-04-06T21:16:49;7.30;99.90
4820;DHT22;2424;49.696;6.630;2023-04-06T21:22:12;7.30;99.90
4820;DHT22;2424;49.696;6.630;2023-04-06T21:27:35;7.30;99.90
4820;DHT22;2424;49.696;6.630;2023-04-06T21:32:57;7.30;99.90
4820;DHT22;2424;49.696;6.630;2023-04-06T21:38:20;7.30;99.90
4820;DHT22;2424;49.696;6.630;2023-04-06T21:43:44;7.30;99.90
4820;DHT22;2424;49.696;6.630;2023-04-06T21:49:06;7.30;99.90
4820;DHT22;2424;49.696;6.630;2023-04-06T21:54:32;7.30;99.90
4820;DHT22;2424;49.696;6.630;2023-04-06T21:59:55;7.30;99.90
4820;DHT22;2424;49.696;6.630;2023-04-06T22:05:17;7.30;99.90
4820;DHT22;2424;49.696;6.630;2023-04-06T22:10:40;7.30;99.90
4820;DHT22;2424;49.696;6.630;2023-04-06T22:16:03;7.30;99.90
4820;DHT22;2424;49.696;6.630;2023-04-06T22:21:25;7.30;99.90
4820;DHT22;2424;49.696;6.630;2023-04-06T22:26:49;7.30;99.90
4820;DHT22;2424;49.696;6.630;2023-04-06T22:32:13;7.40;99.90
4820;DHT22;2424;49.696;6.630;2023-04-06T22:37:35;7.40;99.90
4820;DHT22;2424;49.696;6.630;2023-04-06T22:42:59;7.40;99.90
4820;DHT22;2424;49.696;6.630;2023-04-06T22:48:21;7.40;99.90
4820;DHT22;2424;49.696;6.630;2023-04-06T22:53:45;7.40;99.90
4820;DHT22;2424;49.696;6.630;2023-04-06T22:59:09;7.40;99.90
4820;DHT22;2424;49.696;6.630;2023-04-06T23:04:31;7.40;99.90
4820;DHT22;2424;49.696;6.630;2023-04-06T23:09:53;7.40;99.90
4820;DHT22;2424;49.696;6.630;2023-04-06T23:15:17;7.40;99.90
4820;DHT22;2424;49.696;6.630;2023-04-06T23:20:39;7.40;99.90
4820;DHT22;2424;49.696;6.630;2023-04-06T23:26:01;7.50;99.90
4820;DHT22;2424;49.696;6.630;2023-04-06T23:31:24;7.50;99.90
4820;DHT22;2424;49.696;6.630;2023-04-06T23:36:46;7.50;99.90
4820;DHT22;2424;49.696;6.630;2023-04-06T23:42:08;7.50;99.90
4820;DHT22;2424;49.696;6.630;2023-04-06T23:47:31;7.50;99.90
4820;DHT22;2424;49.696;6.630;2023-04-06T23:52:53;7.50;99.90
4820;DHT22;2424;49.696;6.630;2023-04-06T23:58:15;7.50;99.90
